createdAt,value
2018-12-01T00:00:06.421Z,9.00
2018-12-01T00:01:06.437Z,8.80
2018-12-01T00:02:06.423Z,9.80
2018-12-01T00:03:06.432Z,10.40
2018-12-01T00:04:06.446Z,10.40
2018-12-01T00:05:06.450Z,9.10
2018-12-01T00:06:06.438Z,9.10
2018-12-01T00:07:06.444Z,10.70
2018-12-01T00:08:06.447Z,10.10
2018-12-01T00:09:06.455Z,9.90
2018-12-01T00:10:06.462Z,11.00
2018-12-01T00:11:06.470Z,8.50
2018-12-01T00:12:06.473Z,9.60
2018-12-01T00:13:06.475Z,9.40
2018-12-01T00:14:06.477Z,11.20
2018-12-01T00:15:06.484Z,11.60
2018-12-01T00:16:06.488Z,10.70
2018-12-01T00:17:06.491Z,11.70
2018-12-01T00:18:06.491Z,11.70
2018-12-01T00:19:06.501Z,12.50
2018-12-01T00:20:06.502Z,11.70
2018-12-01T00:21:06.892Z,9.80
2018-12-01T00:22:06.719Z,10.30
2018-12-01T00:23:06.528Z,10.20
2018-12-01T00:24:06.528Z,10.40
2018-12-01T00:25:06.527Z,10.80
2018-12-01T00:26:06.529Z,11.60
2018-12-01T00:27:06.537Z,11.00
2018-12-01T00:28:06.601Z,9.70
2018-12-01T00:29:06.542Z,10.70
2018-12-01T00:30:06.552Z,11.00
2018-12-01T00:31:06.550Z,11.90
2018-12-01T00:32:06.544Z,10.80
2018-12-01T00:33:06.550Z,11.60
2018-12-01T00:34:06.615Z,11.80
2018-12-01T00:35:06.557Z,11.10
2018-12-01T00:36:06.565Z,11.10
2018-12-01T00:37:06.597Z,12.80
2018-12-01T00:38:06.676Z,11.10
2018-12-01T00:39:06.580Z,10.60
2018-12-01T00:40:06.578Z,10.40
2018-12-01T00:41:06.588Z,10.80
2018-12-01T00:42:06.599Z,10.80
2018-12-01T00:43:06.591Z,10.20
2018-12-01T00:44:06.608Z,10.40
2018-12-01T00:45:06.618Z,9.90
2018-12-01T00:46:06.614Z,11.50
2018-12-01T00:47:06.606Z,11.00
2018-12-01T00:48:06.641Z,10.30
2018-12-01T00:49:06.626Z,10.40
2018-12-01T00:50:06.631Z,10.70
2018-12-01T00:51:06.697Z,11.10
2018-12-01T00:52:06.626Z,11.20
2018-12-01T00:53:06.646Z,10.30
2018-12-01T00:54:06.646Z,10.40
2018-12-01T00:55:06.648Z,11.80
2018-12-01T00:56:06.651Z,11.10
2018-12-01T00:57:06.666Z,11.70
2018-12-01T00:58:06.789Z,10.00
2018-12-01T00:59:06.676Z,10.00
2018-12-01T01:00:06.670Z,10.60
2018-12-01T01:01:06.671Z,10.60
2018-12-01T01:02:06.676Z,10.00
2018-12-01T01:03:06.688Z,9.20
2018-12-01T01:04:06.686Z,9.70
2018-12-01T01:05:06.685Z,9.40
2018-12-01T01:06:06.695Z,9.20
2018-12-01T01:07:06.702Z,9.30
2018-12-01T01:08:06.688Z,10.10
2018-12-01T01:09:06.703Z,9.40
2018-12-01T01:10:06.703Z,11.30
2018-12-01T01:11:06.711Z,10.20
2018-12-01T01:12:06.710Z,9.50
2018-12-01T01:13:06.713Z,10.50
2018-12-01T01:14:06.713Z,10.30
2018-12-01T01:15:06.729Z,9.10
2018-12-01T01:16:06.741Z,8.80
2018-12-01T01:17:06.743Z,8.90
2018-12-01T01:18:06.739Z,9.60
2018-12-01T01:19:06.743Z,9.80
2018-12-01T01:20:06.754Z,9.50
2018-12-01T01:21:06.758Z,9.70
2018-12-01T01:22:06.761Z,10.10
2018-12-01T01:23:06.758Z,10.30
2018-12-01T01:24:06.762Z,9.30
2018-12-01T01:25:06.773Z,8.70
2018-12-01T01:26:06.777Z,9.80
2018-12-01T01:27:06.782Z,9.70
2018-12-01T01:28:06.780Z,9.80
2018-12-01T01:29:06.791Z,10.80
2018-12-01T01:30:06.794Z,10.00
2018-12-01T01:31:06.797Z,9.50
2018-12-01T01:32:06.800Z,10.10
2018-12-01T01:33:06.797Z,9.80
2018-12-01T01:34:06.807Z,9.90
2018-12-01T01:35:06.814Z,9.80
2018-12-01T01:36:06.811Z,9.70
2018-12-01T01:37:06.814Z,10.40
2018-12-01T01:38:06.821Z,9.90
2018-12-01T01:39:06.818Z,10.30
2018-12-01T01:40:06.837Z,8.90
2018-12-01T01:41:06.823Z,10.00
2018-12-01T01:42:06.833Z,9.50
2018-12-01T01:43:06.838Z,9.70
2018-12-01T01:44:06.836Z,9.50
2018-12-01T01:45:06.885Z,9.90
2018-12-01T01:46:06.866Z,10.00
2018-12-01T01:47:06.850Z,10.00
2018-12-01T01:48:06.853Z,9.50
2018-12-01T01:49:06.862Z,9.80
2018-12-01T01:50:06.862Z,9.40
2018-12-01T01:51:06.867Z,9.40
2018-12-01T01:52:06.875Z,9.90
2018-12-01T01:53:06.888Z,10.30
2018-12-01T01:54:06.897Z,9.40
2018-12-01T01:55:06.892Z,9.50
2018-12-01T01:56:06.886Z,9.60
2018-12-01T01:57:06.889Z,10.30
2018-12-01T01:58:06.898Z,9.60
2018-12-01T01:59:06.902Z,9.60
2018-12-01T02:00:06.898Z,10.70
2018-12-01T02:01:06.903Z,10.00
2018-12-01T02:02:06.914Z,9.30
2018-12-01T02:03:06.920Z,10.20
2018-12-01T02:04:06.924Z,9.60
2018-12-01T02:05:06.928Z,9.60
2018-12-01T02:06:06.935Z,9.60
2018-12-01T02:07:06.953Z,9.60
2018-12-01T02:08:06.928Z,9.70
2018-12-01T02:09:06.957Z,10.20
2018-12-01T02:10:06.949Z,10.00
2018-12-01T02:11:06.949Z,10.00
2018-12-01T02:12:06.944Z,10.40
2018-12-01T02:13:06.942Z,10.00
2018-12-01T02:14:06.960Z,9.90
2018-12-01T02:15:06.966Z,9.80
2018-12-01T02:16:06.965Z,10.60
2018-12-01T02:17:06.966Z,11.40
2018-12-01T02:18:06.976Z,10.00
2018-12-01T02:19:06.971Z,10.10
2018-12-01T02:20:06.983Z,10.80
2018-12-01T02:21:06.992Z,11.10
2018-12-01T02:22:06.990Z,10.40
2018-12-01T02:23:07.006Z,9.80
2018-12-01T02:24:06.999Z,11.40
2018-12-01T02:25:07.011Z,9.00
2018-12-01T02:26:07.006Z,9.70
2018-12-01T02:27:07.004Z,10.80
2018-12-01T02:28:07.014Z,10.00
2018-12-01T02:29:07.013Z,10.00
2018-12-01T02:30:07.050Z,9.20
2018-12-01T02:31:07.039Z,9.60
2018-12-01T02:32:07.028Z,9.30
2018-12-01T02:33:07.031Z,8.80
2018-12-01T02:34:07.036Z,9.10
2018-12-01T02:35:07.047Z,9.50
2018-12-01T02:36:07.047Z,8.70
2018-12-01T02:37:07.050Z,9.10
2018-12-01T02:38:07.048Z,8.90
2018-12-01T02:39:07.051Z,8.90
2018-12-01T02:40:07.059Z,9.10
2018-12-01T02:41:07.058Z,8.40
2018-12-01T02:42:07.068Z,8.30
2018-12-01T02:43:07.066Z,8.70
2018-12-01T02:44:07.067Z,8.70
2018-12-01T02:45:07.081Z,9.00
2018-12-01T02:46:07.077Z,10.20
2018-12-01T02:47:07.079Z,9.80
2018-12-01T02:48:07.079Z,9.10
2018-12-01T02:49:07.087Z,9.20
2018-12-01T02:50:07.090Z,8.60
2018-12-01T02:51:07.094Z,10.10
2018-12-01T02:52:07.119Z,9.10
2018-12-01T02:53:07.104Z,10.40
2018-12-01T02:54:07.108Z,9.90
2018-12-01T02:55:07.112Z,10.10
2018-12-01T02:56:07.149Z,10.00
2018-12-01T02:57:07.117Z,10.00
2018-12-01T02:58:07.122Z,9.80
2018-12-01T02:59:07.127Z,9.50
2018-12-01T03:00:07.133Z,9.10
2018-12-01T03:01:07.136Z,9.90
2018-12-01T03:02:07.138Z,8.70
2018-12-01T03:03:07.138Z,9.30
2018-12-01T03:04:07.148Z,9.30
2018-12-01T03:05:07.143Z,9.00
2018-12-01T03:06:07.186Z,8.70
2018-12-01T03:07:07.152Z,8.80
2018-12-01T03:08:07.153Z,8.80
2018-12-01T03:09:07.162Z,8.70
2018-12-01T03:10:07.164Z,8.40
2018-12-01T03:11:07.167Z,8.80
2018-12-01T03:12:07.170Z,9.60
2018-12-01T03:13:07.166Z,9.40
2018-12-01T03:14:07.178Z,9.40
2018-12-01T03:15:07.194Z,9.40
2018-12-01T03:16:07.184Z,9.70
2018-12-01T03:17:07.181Z,8.70
2018-12-01T03:18:07.199Z,9.00
2018-12-01T03:19:07.190Z,9.30
2018-12-01T03:20:07.200Z,8.50
2018-12-01T03:21:07.194Z,11.10
2018-12-01T03:22:07.216Z,9.70
2018-12-01T03:23:07.203Z,9.70
2018-12-01T03:24:07.204Z,9.50
2018-12-01T03:25:07.225Z,9.10
2018-12-01T03:26:07.224Z,8.90
2018-12-01T03:27:07.226Z,9.60
2018-12-01T03:28:07.225Z,8.30
2018-12-01T03:29:07.232Z,8.60
2018-12-01T03:31:07.241Z,9.20
2018-12-01T03:32:07.239Z,8.80
2018-12-01T03:33:07.244Z,10.20
2018-12-01T03:34:07.254Z,9.80
2018-12-01T03:35:07.261Z,9.00
2018-12-01T03:36:07.257Z,8.40
2018-12-01T03:37:07.255Z,9.10
2018-12-01T03:38:07.256Z,9.30
2018-12-01T03:39:07.275Z,8.70
2018-12-01T03:40:07.273Z,8.90
2018-12-01T03:41:07.275Z,9.40
2018-12-01T03:42:07.274Z,8.90
2018-12-01T03:43:07.276Z,9.30
2018-12-01T03:44:07.281Z,7.90
2018-12-01T03:45:07.289Z,8.50
2018-12-01T03:46:07.324Z,8.70
2018-12-01T03:47:07.289Z,8.40
2018-12-01T03:48:07.297Z,7.40
2018-12-01T03:49:07.295Z,8.50
2018-12-01T03:50:07.300Z,8.10
2018-12-01T03:51:07.305Z,8.40
2018-12-01T03:52:07.311Z,9.00
2018-12-01T03:53:07.323Z,8.50
2018-12-01T03:54:07.318Z,8.20
2018-12-01T03:55:07.329Z,8.60
2018-12-01T03:56:07.326Z,8.30
2018-12-01T03:57:07.325Z,8.30
2018-12-01T03:58:07.323Z,8.60
2018-12-01T03:59:07.343Z,8.90
2018-12-01T04:00:07.336Z,8.70
2018-12-01T04:01:07.331Z,8.20
2018-12-01T04:02:07.347Z,8.30
2018-12-01T04:03:07.343Z,8.30
2018-12-01T04:04:07.353Z,8.30
2018-12-01T04:05:07.356Z,7.70
2018-12-01T04:06:07.357Z,7.90
2018-12-01T04:07:07.362Z,7.50
2018-12-01T04:08:07.358Z,7.30
2018-12-01T04:09:07.366Z,7.10
2018-12-01T04:10:07.374Z,7.40
2018-12-01T04:11:07.378Z,7.30
2018-12-01T04:12:07.373Z,8.00
2018-12-01T04:13:07.378Z,6.40
2018-12-01T04:14:07.379Z,7.30
2018-12-01T04:15:07.385Z,7.40
2018-12-01T04:16:07.390Z,7.40
2018-12-01T04:17:07.436Z,7.40
2018-12-01T04:18:07.399Z,7.40
2018-12-01T04:19:07.406Z,8.00
2018-12-01T04:20:07.402Z,7.60
2018-12-01T04:21:07.407Z,7.00
2018-12-01T04:22:07.410Z,7.00
2018-12-01T04:23:07.418Z,7.60
2018-12-01T04:24:07.424Z,6.80
2018-12-01T04:25:07.419Z,7.00
2018-12-01T04:26:07.419Z,6.30
2018-12-01T04:27:07.430Z,7.00
2018-12-01T04:28:07.431Z,6.80
2018-12-01T04:30:07.447Z,6.70
2018-12-01T04:31:07.448Z,6.40
2018-12-01T04:32:07.442Z,5.70
2018-12-01T04:33:07.442Z,6.60
2018-12-01T04:34:07.454Z,6.20
2018-12-01T04:35:07.456Z,5.70
2018-12-01T04:36:07.466Z,6.40
2018-12-01T04:37:07.465Z,5.80
2018-12-01T04:38:07.463Z,6.70
2018-12-01T04:39:07.469Z,5.70
2018-12-01T04:40:07.482Z,6.10
2018-12-01T04:41:07.482Z,6.40
2018-12-01T04:42:07.479Z,6.50
2018-12-01T04:43:07.476Z,6.40
2018-12-01T04:44:07.482Z,5.60
2018-12-01T04:45:07.495Z,5.40
2018-12-01T04:46:07.491Z,5.70
2018-12-01T04:47:07.494Z,5.90
2018-12-01T04:48:07.501Z,6.00
2018-12-01T04:49:07.506Z,6.10
2018-12-01T04:50:07.507Z,5.00
2018-12-01T04:51:07.517Z,6.40
2018-12-01T04:52:07.503Z,6.50
2018-12-01T04:53:07.514Z,5.50
2018-12-01T04:54:07.524Z,5.20
2018-12-01T04:55:07.530Z,5.00
2018-12-01T04:57:07.535Z,5.20
2018-12-01T04:58:07.537Z,4.90
2018-12-01T04:59:07.539Z,5.40
2018-12-01T05:00:07.543Z,5.10
2018-12-01T05:01:07.551Z,5.20
2018-12-01T05:02:07.548Z,5.30
2018-12-01T05:03:07.554Z,4.80
2018-12-01T05:04:07.563Z,5.20
2018-12-01T05:05:07.561Z,5.20
2018-12-01T05:06:07.563Z,5.30
2018-12-01T05:07:07.565Z,4.70
2018-12-01T05:08:07.570Z,5.40
2018-12-01T05:09:07.575Z,5.30
2018-12-01T05:10:07.573Z,5.90
2018-12-01T05:11:07.581Z,5.10
2018-12-01T05:12:07.582Z,5.10
2018-12-01T05:13:07.590Z,5.80
2018-12-01T05:14:07.617Z,5.60
2018-12-01T05:15:07.595Z,5.50
2018-12-01T05:16:07.596Z,5.50
2018-12-01T05:17:07.607Z,5.80
2018-12-01T05:18:07.608Z,5.80
2018-12-01T05:19:07.611Z,5.30
2018-12-01T05:20:07.616Z,4.70
2018-12-01T05:21:07.624Z,5.40
2018-12-01T05:22:07.655Z,5.70
2018-12-01T05:23:07.626Z,5.10
2018-12-01T05:24:07.634Z,5.60
2018-12-01T05:25:07.638Z,5.60
2018-12-01T05:26:07.642Z,5.00
2018-12-01T05:27:07.648Z,5.50
2018-12-01T05:28:07.645Z,5.30
2018-12-01T05:29:07.650Z,5.60
2018-12-01T05:30:07.653Z,5.50
2018-12-01T05:31:07.661Z,5.60
2018-12-01T05:32:07.665Z,5.40
2018-12-01T05:33:07.661Z,5.50
2018-12-01T05:34:07.667Z,5.50
2018-12-01T05:35:07.672Z,5.10
2018-12-01T05:36:07.675Z,5.80
2018-12-01T05:37:07.680Z,6.10
2018-12-01T05:38:07.682Z,5.00
2018-12-01T05:39:07.688Z,5.00
2018-12-01T05:40:07.686Z,5.10
2018-12-01T05:41:07.685Z,5.20
2018-12-01T05:42:07.692Z,5.10
2018-12-01T05:43:07.702Z,4.80
2018-12-01T05:44:07.700Z,5.00
2018-12-01T05:45:07.704Z,5.80
2018-12-01T05:46:07.709Z,5.40
2018-12-01T05:47:07.712Z,5.10
2018-12-01T05:48:07.714Z,4.90
2018-12-01T05:49:07.724Z,4.80
2018-12-01T05:50:07.732Z,5.10
2018-12-01T05:51:07.730Z,4.90
2018-12-01T05:52:07.744Z,4.90
2018-12-01T05:53:07.742Z,4.70
2018-12-01T05:54:07.740Z,5.40
2018-12-01T05:55:07.743Z,5.60
2018-12-01T05:56:07.747Z,4.70
2018-12-01T05:58:07.751Z,5.30
2018-12-01T05:59:07.759Z,5.20
2018-12-01T06:00:07.760Z,5.80
2018-12-01T06:01:07.774Z,4.70
2018-12-01T06:02:07.783Z,4.90
2018-12-01T06:03:07.773Z,4.50
2018-12-01T06:04:07.779Z,5.10
2018-12-01T06:05:07.794Z,4.90
2018-12-01T06:06:07.788Z,4.90
2018-12-01T06:07:07.792Z,4.90
2018-12-01T06:08:07.798Z,4.50
2018-12-01T06:09:07.793Z,4.90
2018-12-01T06:10:07.802Z,5.70
2018-12-01T06:11:07.809Z,4.80
2018-12-01T06:12:07.801Z,4.70
2018-12-01T06:13:07.807Z,5.10
2018-12-01T06:14:07.815Z,4.60
2018-12-01T06:15:07.820Z,4.80
2018-12-01T06:16:07.825Z,4.60
2018-12-01T06:17:07.824Z,5.00
2018-12-01T06:18:07.825Z,4.90
2018-12-01T06:19:07.833Z,4.20
2018-12-01T06:20:07.842Z,4.80
2018-12-01T06:21:07.844Z,5.00
2018-12-01T06:22:07.848Z,4.90
2018-12-01T06:23:07.851Z,4.70
2018-12-01T06:24:07.861Z,4.20
2018-12-01T06:25:07.863Z,4.90
2018-12-01T06:26:07.863Z,4.60
2018-12-01T06:27:07.868Z,5.20
2018-12-01T06:28:07.871Z,4.70
2018-12-01T06:29:07.873Z,4.90
2018-12-01T06:30:07.890Z,5.10
2018-12-01T06:31:07.885Z,5.00
2018-12-01T06:32:07.885Z,4.50
2018-12-01T06:33:07.889Z,4.40
2018-12-01T06:34:07.900Z,5.00
2018-12-01T06:35:07.894Z,4.60
2018-12-01T06:36:07.899Z,4.50
2018-12-01T06:37:07.922Z,4.70
2018-12-01T06:38:07.910Z,5.70
2018-12-01T06:39:07.914Z,5.20
2018-12-01T06:40:07.923Z,4.90
2018-12-01T06:41:07.911Z,4.80
2018-12-01T06:42:07.922Z,5.20
2018-12-01T06:43:07.930Z,5.10
2018-12-01T06:44:07.933Z,5.00
2018-12-01T06:45:07.936Z,4.80
2018-12-01T06:46:07.949Z,4.90
2018-12-01T06:47:07.941Z,5.00
2018-12-01T06:48:07.946Z,4.90
2018-12-01T06:49:07.947Z,5.20
2018-12-01T06:50:07.952Z,5.00
2018-12-01T06:52:07.959Z,5.10
2018-12-01T06:53:07.966Z,4.80
2018-12-01T06:54:07.974Z,4.80
2018-12-01T06:55:07.980Z,5.10
2018-12-01T06:56:07.974Z,4.90
2018-12-01T06:57:08.011Z,4.20
2018-12-01T06:58:07.991Z,5.00
2018-12-01T06:59:07.997Z,4.80
2018-12-01T07:00:07.996Z,4.50
2018-12-01T07:01:07.994Z,4.40
2018-12-01T07:02:08.007Z,4.70
2018-12-01T07:03:08.003Z,4.80
2018-12-01T07:04:08.014Z,4.80
2018-12-01T07:05:08.028Z,4.70
2018-12-01T07:06:08.025Z,4.40
2018-12-01T07:07:08.030Z,4.70
2018-12-01T07:08:08.028Z,4.40
2018-12-01T07:09:08.039Z,4.20
2018-12-01T07:10:08.035Z,5.30
2018-12-01T07:11:08.035Z,3.90
2018-12-01T07:12:08.044Z,4.80
2018-12-01T07:13:08.045Z,4.20
2018-12-01T07:14:08.043Z,4.80
2018-12-01T07:15:08.060Z,4.60
2018-12-01T07:16:08.057Z,4.60
2018-12-01T07:17:08.062Z,4.40
2018-12-01T07:18:08.058Z,4.30
2018-12-01T07:19:08.067Z,4.20
2018-12-01T07:20:08.069Z,4.60
2018-12-01T07:21:08.090Z,4.30
2018-12-01T07:22:08.085Z,4.50
2018-12-01T07:23:08.087Z,5.00
2018-12-01T07:24:08.093Z,4.80
2018-12-01T07:25:08.089Z,4.80
2018-12-01T07:26:08.094Z,4.20
2018-12-01T07:27:08.101Z,3.80
2018-12-01T07:28:08.113Z,3.90
2018-12-01T07:29:08.125Z,4.30
2018-12-01T07:30:08.129Z,4.20
2018-12-01T07:31:08.127Z,4.40
2018-12-01T07:32:08.127Z,5.20
2018-12-01T07:33:08.121Z,3.70
2018-12-01T07:35:08.149Z,3.70
2018-12-01T07:36:08.145Z,5.00
2018-12-01T07:37:08.140Z,4.60
2018-12-01T07:38:08.145Z,4.60
2018-12-01T07:39:08.158Z,4.40
2018-12-01T07:40:08.166Z,3.70
2018-12-01T07:41:08.155Z,3.90
2018-12-01T07:42:08.160Z,4.80
2018-12-01T07:43:08.167Z,3.90
2018-12-01T07:44:08.168Z,5.20
2018-12-01T07:45:08.178Z,4.00
2018-12-01T07:46:08.183Z,4.70
2018-12-01T07:47:08.190Z,4.30
2018-12-01T07:48:08.189Z,4.50
2018-12-01T07:49:08.182Z,4.40
2018-12-01T07:50:08.194Z,4.70
2018-12-01T07:51:08.192Z,4.80
2018-12-01T07:52:08.202Z,4.10
2018-12-01T07:53:08.205Z,4.00
2018-12-01T07:54:08.210Z,4.30
2018-12-01T07:55:08.215Z,4.40
2018-12-01T07:56:08.219Z,4.50
2018-12-01T07:57:08.231Z,3.90
2018-12-01T07:58:08.235Z,4.30
2018-12-01T07:59:08.233Z,4.80
2018-12-01T08:01:08.239Z,4.40
2018-12-01T08:02:08.251Z,5.00
2018-12-01T08:03:08.257Z,4.10
2018-12-01T08:05:08.267Z,4.20
2018-12-01T08:06:08.270Z,4.20
2018-12-01T08:07:08.292Z,3.40
2018-12-01T08:08:08.273Z,4.30
2018-12-01T08:09:08.282Z,3.80
2018-12-01T08:10:08.294Z,3.50
2018-12-01T08:11:08.281Z,4.10
2018-12-01T08:12:08.294Z,3.60
2018-12-01T08:13:08.303Z,3.30
2018-12-01T08:14:08.307Z,4.20
2018-12-01T08:15:08.320Z,3.10
2018-12-01T08:16:08.315Z,4.10
2018-12-01T08:17:08.316Z,4.20
2018-12-01T08:18:08.321Z,3.60
2018-12-01T08:20:08.330Z,4.10
2018-12-01T08:21:08.337Z,3.40
2018-12-01T08:23:08.352Z,3.50
2018-12-01T08:24:08.350Z,3.60
2018-12-01T08:25:08.360Z,3.90
2018-12-01T08:26:08.360Z,3.40
2018-12-01T08:27:08.372Z,3.50
2018-12-01T08:28:08.862Z,3.30
2018-12-01T08:29:08.378Z,3.10
2018-12-01T08:30:08.390Z,3.70
2018-12-01T08:31:08.379Z,3.90
2018-12-01T08:32:08.384Z,3.50
2018-12-01T08:33:08.385Z,3.50
2018-12-01T08:34:08.392Z,3.60
2018-12-01T08:36:08.404Z,3.10
2018-12-01T08:37:08.414Z,3.80
2018-12-01T08:38:08.415Z,3.60
2018-12-01T08:39:08.418Z,3.40
2018-12-01T08:40:09.343Z,3.00
2018-12-01T08:41:08.427Z,3.00
2018-12-01T08:42:08.432Z,3.60
2018-12-01T08:43:08.443Z,3.10
2018-12-01T08:44:08.442Z,2.50
2018-12-01T08:45:08.450Z,2.60
2018-12-01T08:46:08.448Z,3.20
2018-12-01T08:47:08.447Z,3.30
2018-12-01T08:48:08.463Z,3.10
2018-12-01T08:49:08.471Z,3.20
2018-12-01T08:50:08.471Z,3.50
2018-12-01T08:52:08.481Z,4.10
2018-12-01T08:53:08.487Z,3.00
2018-12-01T08:54:08.489Z,3.10
2018-12-01T08:55:08.518Z,2.80
2018-12-01T08:56:08.505Z,3.60
2018-12-01T08:57:08.584Z,3.30
2018-12-01T08:58:08.514Z,3.20
2018-12-01T08:59:08.522Z,4.10
2018-12-01T09:00:08.524Z,3.20
2018-12-01T09:01:08.529Z,3.20
2018-12-01T09:02:08.532Z,3.20
2018-12-01T09:03:08.548Z,3.20
2018-12-01T09:04:08.547Z,3.60
2018-12-01T09:05:08.558Z,3.20
2018-12-01T09:06:08.550Z,3.70
2018-12-01T09:07:08.556Z,3.00
2018-12-01T09:08:08.566Z,4.00
2018-12-01T09:09:08.810Z,3.00
2018-12-01T09:10:08.577Z,3.00
2018-12-01T09:11:08.579Z,3.50
2018-12-01T09:12:08.588Z,3.40
2018-12-01T09:13:08.587Z,3.40
2018-12-01T09:14:08.603Z,2.60
2018-12-01T09:15:08.601Z,2.90
2018-12-01T09:16:08.829Z,2.80
2018-12-01T09:17:08.616Z,3.10
2018-12-01T09:19:08.873Z,3.30
2018-12-01T09:20:08.628Z,2.80
2018-12-01T09:21:08.643Z,3.60
2018-12-01T09:22:09.734Z,3.20
2018-12-01T09:23:08.656Z,3.10
2018-12-01T09:24:08.745Z,2.80
2018-12-01T09:25:08.667Z,2.90
2018-12-01T09:26:08.668Z,3.10
2018-12-01T09:27:08.688Z,2.50
2018-12-01T09:28:08.681Z,2.90
2018-12-01T09:29:08.784Z,2.60
2018-12-01T09:30:08.696Z,3.20
2018-12-01T09:31:08.704Z,3.20
2018-12-01T09:32:08.754Z,3.40
2018-12-01T09:33:08.719Z,3.00
2018-12-01T09:34:08.723Z,3.20
2018-12-01T09:35:08.725Z,3.20
2018-12-01T09:36:08.768Z,3.00
2018-12-01T09:37:08.740Z,2.80
2018-12-01T09:38:08.746Z,2.90
2018-12-01T09:39:09.446Z,2.50
2018-12-01T09:40:08.760Z,2.70
2018-12-01T09:41:08.769Z,2.90
2018-12-01T09:42:08.779Z,3.40
2018-12-01T09:43:08.889Z,2.90
2018-12-01T09:44:08.789Z,3.00
2018-12-01T09:45:08.794Z,3.30
2018-12-01T09:46:08.804Z,3.30
2018-12-01T09:47:08.811Z,3.70
2018-12-01T09:48:08.807Z,3.50
2018-12-01T09:49:08.821Z,2.60
2018-12-01T09:50:08.823Z,3.50
2018-12-01T09:51:08.855Z,3.80
2018-12-01T09:52:08.839Z,3.70
2018-12-01T09:53:08.845Z,3.20
2018-12-01T09:54:08.861Z,3.20
2018-12-01T09:55:08.863Z,2.70
2018-12-01T09:56:08.865Z,2.60
2018-12-01T09:57:08.876Z,3.10
2018-12-01T09:58:08.883Z,3.30
2018-12-01T09:59:08.890Z,3.00
2018-12-01T10:00:08.895Z,3.60
2018-12-01T10:01:08.904Z,3.70
2018-12-01T10:02:08.902Z,2.90
2018-12-01T10:03:08.931Z,2.80
2018-12-01T10:04:08.943Z,2.80
2018-12-01T10:05:08.932Z,3.20
2018-12-01T10:06:08.928Z,3.00
2018-12-01T10:07:08.953Z,3.10
2018-12-01T10:08:08.943Z,3.00
2018-12-01T10:09:08.973Z,3.90
2018-12-01T10:10:08.959Z,3.60
2018-12-01T10:11:08.972Z,3.30
2018-12-01T10:12:08.967Z,2.70
2018-12-01T10:13:08.982Z,3.30
2018-12-01T10:14:08.989Z,2.90
2018-12-01T10:15:08.993Z,3.00
2018-12-01T10:16:09.002Z,3.50
2018-12-01T10:17:09.013Z,3.90
2018-12-01T10:18:09.018Z,3.20
2018-12-01T10:19:10.064Z,3.30
2018-12-01T10:20:09.031Z,3.30
2018-12-01T10:21:09.039Z,3.40
2018-12-01T10:22:09.053Z,3.40
2018-12-01T10:23:09.053Z,3.30
2018-12-01T10:24:09.061Z,3.80
2018-12-01T10:25:09.064Z,3.50
2018-12-01T10:26:09.075Z,2.60
2018-12-01T10:27:09.077Z,2.60
2018-12-01T10:28:09.087Z,3.00
2018-12-01T10:29:09.096Z,3.30
2018-12-01T10:30:09.101Z,3.40
2018-12-01T10:31:09.109Z,2.50
2018-12-01T10:32:09.111Z,4.20
2018-12-01T10:33:09.114Z,3.50
2018-12-01T10:34:09.134Z,2.70
2018-12-01T10:35:09.132Z,2.80
2018-12-01T10:36:09.138Z,3.10
2018-12-01T10:37:09.141Z,3.00
2018-12-01T10:38:09.145Z,2.90
2018-12-01T10:39:09.155Z,2.80
2018-12-01T10:40:09.151Z,3.10
2018-12-01T10:41:09.166Z,3.10
2018-12-01T10:42:09.173Z,2.90
2018-12-01T10:43:09.179Z,2.90
2018-12-01T10:44:09.195Z,2.80
2018-12-01T10:45:09.191Z,3.60
2018-12-01T10:46:09.203Z,3.00
2018-12-01T10:47:09.207Z,3.00
2018-12-01T10:48:09.207Z,2.50
2018-12-01T10:49:09.220Z,3.40
2018-12-01T10:50:09.221Z,3.10
2018-12-01T10:51:09.237Z,2.60
2018-12-01T10:52:09.242Z,2.50
2018-12-01T10:54:09.251Z,2.20
2018-12-01T10:55:09.256Z,2.10
2018-12-01T10:56:09.271Z,2.90
2018-12-01T10:57:09.270Z,2.50
2018-12-01T10:58:09.297Z,2.50
2018-12-01T11:00:09.296Z,2.70
2018-12-01T11:01:09.309Z,2.60
2018-12-01T11:02:09.307Z,2.40
2018-12-01T11:03:09.316Z,2.40
2018-12-01T11:04:09.316Z,2.00
2018-12-01T11:05:09.364Z,2.50
2018-12-01T11:06:09.335Z,3.10
2018-12-01T11:07:09.342Z,2.40
2018-12-01T11:08:09.350Z,2.70
2018-12-01T11:09:09.361Z,2.20
2018-12-01T11:10:09.370Z,3.10
2018-12-01T11:11:09.370Z,2.50
2018-12-01T11:12:09.378Z,2.50
2018-12-01T11:13:09.390Z,3.10
2018-12-01T11:14:09.405Z,2.60
2018-12-01T11:15:09.392Z,3.30
2018-12-01T11:17:09.425Z,2.50
2018-12-01T11:18:09.423Z,2.30
2018-12-01T11:19:09.434Z,2.70
2018-12-01T11:20:09.442Z,2.50
2018-12-01T11:21:09.450Z,2.50
2018-12-01T11:23:09.533Z,2.60
2018-12-01T11:24:09.472Z,2.00
2018-12-01T11:25:09.472Z,2.40
2018-12-01T11:26:09.482Z,2.00
2018-12-01T11:27:09.479Z,2.30
2018-12-01T11:28:09.493Z,2.90
2018-12-01T11:29:09.575Z,2.40
2018-12-01T11:30:09.506Z,2.50
2018-12-01T11:31:09.532Z,2.30
2018-12-01T11:33:09.538Z,2.40
2018-12-01T11:34:09.540Z,3.00
2018-12-01T11:35:09.551Z,2.60
2018-12-01T11:36:09.568Z,2.40
2018-12-01T11:37:09.583Z,2.40
2018-12-01T11:38:09.565Z,3.00
2018-12-01T11:39:09.575Z,2.10
2018-12-01T11:40:09.575Z,2.40
2018-12-01T11:41:09.596Z,2.70
2018-12-01T11:42:09.602Z,2.80
2018-12-01T11:43:09.601Z,2.50
2018-12-01T11:44:09.606Z,3.10
2018-12-01T11:45:09.629Z,2.80
2018-12-01T11:46:09.618Z,3.30
2018-12-01T11:47:09.621Z,2.40
2018-12-01T11:48:09.695Z,4.70
2018-12-01T11:49:09.677Z,8.00
2018-12-01T11:50:09.642Z,10.20
2018-12-01T11:51:09.654Z,5.10
2018-12-01T11:52:09.664Z,5.90
2018-12-01T11:53:09.695Z,4.70
2018-12-01T11:54:09.709Z,4.40
2018-12-01T11:55:09.685Z,4.40
2018-12-01T11:56:09.688Z,3.90
2018-12-01T11:57:09.718Z,3.00
2018-12-01T11:58:09.714Z,3.20
2018-12-01T11:59:09.707Z,2.80
2018-12-01T12:00:09.711Z,3.40
2018-12-01T12:02:09.736Z,3.20
2018-12-01T12:03:09.761Z,2.50
2018-12-01T12:06:09.757Z,3.20
2018-12-01T12:07:09.763Z,3.10
2018-12-01T12:08:09.764Z,2.80
2018-12-01T12:09:09.783Z,3.20
2018-12-01T12:10:09.789Z,3.50
2018-12-01T12:11:09.802Z,3.20
2018-12-01T12:12:09.816Z,2.90
2018-12-01T12:13:09.804Z,3.40
2018-12-01T12:14:09.817Z,3.50
2018-12-01T12:15:09.814Z,3.10
2018-12-01T12:16:09.867Z,2.90
2018-12-01T12:17:09.841Z,3.10
2018-12-01T12:18:09.845Z,3.20
2018-12-01T12:19:09.854Z,3.30
2018-12-01T12:20:09.853Z,2.60
2018-12-01T12:21:09.863Z,3.50
2018-12-01T12:22:09.886Z,3.50
2018-12-01T12:23:09.877Z,3.40
2018-12-01T12:24:09.885Z,3.00
2018-12-01T12:25:09.891Z,3.90
2018-12-01T12:26:09.901Z,3.20
2018-12-01T12:27:09.906Z,2.60
2018-12-01T12:28:09.932Z,2.20
2018-12-01T12:29:09.925Z,4.00
2018-12-01T12:30:09.925Z,4.40
2018-12-01T12:31:09.949Z,2.90
2018-12-01T12:32:09.951Z,2.80
2018-12-01T12:33:09.952Z,3.10
2018-12-01T12:34:09.978Z,2.80
2018-12-01T12:35:10.075Z,3.20
2018-12-01T12:36:10.026Z,2.90
2018-12-01T12:37:10.037Z,2.50
2018-12-01T12:38:10.023Z,3.20
2018-12-01T12:39:10.076Z,2.70
2018-12-01T12:40:10.063Z,2.90
2018-12-01T12:41:10.103Z,2.60
2018-12-01T12:42:10.058Z,2.80
2018-12-01T12:43:10.050Z,2.30
2018-12-01T12:44:10.069Z,2.60
2018-12-01T12:45:10.058Z,3.00
2018-12-01T12:46:10.074Z,2.50
2018-12-01T12:47:10.090Z,2.90
2018-12-01T12:48:10.084Z,3.20
2018-12-01T12:49:10.092Z,3.50
2018-12-01T12:50:10.107Z,2.80
2018-12-01T12:51:10.121Z,2.00
2018-12-01T12:52:10.928Z,2.60
2018-12-01T12:53:10.119Z,2.60
2018-12-01T12:54:10.143Z,2.90
2018-12-01T12:55:10.155Z,2.70
2018-12-01T12:57:10.142Z,2.60
2018-12-01T12:58:10.167Z,2.60
2018-12-01T12:59:10.177Z,2.60
2018-12-01T13:00:10.172Z,2.80
2018-12-01T13:01:10.206Z,2.20
2018-12-01T13:02:10.182Z,2.80
2018-12-01T13:03:10.203Z,2.50
2018-12-01T13:04:10.191Z,2.50
2018-12-01T13:05:10.214Z,2.00
2018-12-01T13:06:10.201Z,3.00
2018-12-01T13:07:10.216Z,2.10
2018-12-01T13:08:10.230Z,2.50
2018-12-01T13:09:10.226Z,2.40
2018-12-01T13:10:10.255Z,2.20
2018-12-01T13:11:10.256Z,2.70
2018-12-01T13:12:10.243Z,2.80
2018-12-01T13:13:10.267Z,2.20
2018-12-01T13:14:10.252Z,2.80
2018-12-01T13:15:10.281Z,2.30
2018-12-01T13:16:10.273Z,2.60
2018-12-01T13:17:10.275Z,2.00
2018-12-01T13:18:10.284Z,2.60
2018-12-01T13:19:10.292Z,2.10
2018-12-01T13:20:10.316Z,2.20
2018-12-01T13:21:10.303Z,2.30
2018-12-01T13:22:10.320Z,2.40
2018-12-01T13:23:10.316Z,2.50
2018-12-01T13:24:10.332Z,2.30
2018-12-01T13:25:10.328Z,2.30
2018-12-01T13:26:10.346Z,3.10
2018-12-01T13:27:10.357Z,2.70
2018-12-01T13:28:10.371Z,2.70
2018-12-01T13:29:10.385Z,2.50
2018-12-01T13:30:10.368Z,2.10
2018-12-01T13:31:10.381Z,2.50
2018-12-01T13:32:10.389Z,2.60
2018-12-01T13:33:10.404Z,2.60
2018-12-01T13:34:10.430Z,2.50
2018-12-01T13:35:10.431Z,2.40
2018-12-01T13:36:10.417Z,2.60
2018-12-01T13:37:10.418Z,3.10